S32

Cooperstown Municipal Airport

Cooperstown, North Dakota, USA
METAR KS32 192255Z AUTO 05007KT 9SM CLR 20/12 A3006 RMK AO2
Observed Flight Rules
Aug-19 @ 22:55 UTC (13 minutes ago) Visual Flight Rules
Wind Visibility Clouds
50° at 7 knots 9 miles
  • Clear skies
Temperatures Readings
Current 20°C / 68°F
Dewpoint 12°C / 54°F
Humidity 60%
Altimeter 30.06" Hg
Pressure 1018 hPa
Elevation 684
METAR KS32 192255Z AUTO 05007KT 9SM CLR 20/12 A3006 RMK AO2
Observed Flight Rules
Aug-19 @ 22:55 UTC
(13 minutes ago)
VFR
Wind Visibility
50° at 7 knots 9 miles
Clouds
  • Clear skies
Temperature Dewpoint
20°C / 68°F 12°C / 54°F
Humidity Altimeter Pressure
60% 30.06" Hg 1018 hPa